Time;durP1;ratioP1;P1;durP2;ratioP2;P2;SDS_P1;SDS_P2;PMS_P1;PMS_P2;Temp;Humidity;BMP_temperature;BMP_pressure;BME280_temperature;BME280_humidity;BME280_pressure;Samples;Min_cycle;Max_cycle;Signal;HPM_P1;HPM_P2
2021/09/12 00:01:23;;;;;;;;;;;17.90;99.90;;;;;;5071469;28;20042;-71
2021/09/12 00:03:48;;;;;;;;;;;17.80;99.90;;;;;;5072152;28;19939;-70
2021/09/12 00:06:14;;;;;;;;;;;17.90;99.90;;;;;;5071095;28;20288;-71
2021/09/12 00:08:39;;;;;;;;;;;17.80;99.90;;;;;;5070090;28;20016;-70
2021/09/12 00:11:05;;;;;;;;;;;17.80;99.90;;;;;;5071684;28;20464;-71
2021/09/12 00:13:31;;;;;;;;;;;17.80;99.90;;;;;;5071264;28;19944;-71
2021/09/12 00:15:56;;;;;;;;;;;17.80;99.90;;;;;;5069928;28;19916;-70
2021/09/12 00:18:22;;;;;;;;;;;17.90;99.90;;;;;;5070170;28;19920;-69
2021/09/12 00:20:49;;;;;;;;;;;17.90;99.90;;;;;;5070585;28;21302;-71
2021/09/12 00:23:15;;;;;;;;;;;17.80;99.90;;;;;;5071504;28;20307;-70
2021/09/12 00:25:41;;;;;;;;;;;17.80;99.90;;;;;;5071326;28;19920;-71
2021/09/12 00:28:07;;;;;;;;;;;17.80;99.90;;;;;;5070958;28;20319;-71
2021/09/12 00:30:32;;;;;;;;;;;17.80;99.90;;;;;;5071640;28;19917;-71
2021/09/12 00:32:58;;;;;;;;;;;17.80;99.90;;;;;;5071467;28;19917;-71
2021/09/12 00:35:23;;;;;;;;;;;17.80;99.90;;;;;;5070976;28;19924;-71
2021/09/12 00:37:50;;;;;;;;;;;17.80;99.90;;;;;;5071192;28;20401;-71
2021/09/12 00:40:18;;;;;;;;;;;17.80;99.90;;;;;;5070843;28;19951;-68
2021/09/12 00:42:44;;;;;;;;;;;17.80;99.90;;;;;;5070007;28;19920;-71
2021/09/12 00:45:10;;;;;;;;;;;17.70;99.90;;;;;;5070809;28;19916;-70
2021/09/12 00:47:35;;;;;;;;;;;17.70;99.90;;;;;;5070568;28;19973;-70
2021/09/12 00:50:01;;;;;;;;;;;17.70;99.90;;;;;;5071149;28;20053;-70
2021/09/12 00:52:27;;;;;;;;;;;17.70;99.90;;;;;;5071201;28;20317;-71
2021/09/12 00:54:54;;;;;;;;;;;17.70;99.90;;;;;;5070449;28;19921;-71
2021/09/12 00:57:21;;;;;;;;;;;17.70;99.90;;;;;;5071058;28;19925;-71
2021/09/12 00:59:48;;;;;;;;;;;17.70;99.90;;;;;;5070728;28;20426;-71
2021/09/12 01:02:14;;;;;;;;;;;17.70;99.90;;;;;;5071260;28;19916;-71
2021/09/12 01:04:39;;;;;;;;;;;17.70;99.90;;;;;;5070843;28;19921;-71
2021/09/12 01:07:07;;;;;;;;;;;17.70;99.90;;;;;;5070487;28;20278;-71
2021/09/12 01:09:34;;;;;;;;;;;17.70;99.90;;;;;;5071113;28;20351;-71
2021/09/12 01:12:00;;;;;;;;;;;17.70;99.90;;;;;;5070895;28;19999;-71
2021/09/12 01:14:26;;;;;;;;;;;17.70;99.90;;;;;;5070514;28;19924;-70
2021/09/12 01:16:52;;;;;;;;;;;17.70;99.90;;;;;;5069522;28;19974;-71
2021/09/12 01:19:18;;;;;;;;;;;17.60;99.90;;;;;;5070739;28;19920;-71
2021/09/12 01:21:44;;;;;;;;;;;17.70;99.90;;;;;;5073856;28;19923;-72
2021/09/12 01:24:09;;;;;;;;;;;17.70;99.90;;;;;;5074593;28;19916;-71
2021/09/12 01:26:35;;;;;;;;;;;17.60;99.90;;;;;;5073803;28;20461;-71
2021/09/12 01:29:00;;;;;;;;;;;17.60;99.90;;;;;;5074332;28;20364;-71
2021/09/12 01:31:30;;;;;;;;;;;17.60;99.90;;;;;;5074260;28;19923;-70
2021/09/12 01:33:56;;;;;;;;;;;17.60;99.90;;;;;;5074026;28;20004;-70
2021/09/12 01:36:22;;;;;;;;;;;17.60;99.90;;;;;;5074063;28;19923;-69
2021/09/12 01:38:47;;;;;;;;;;;17.60;99.90;;;;;;5072712;28;19920;-71
2021/09/12 01:41:13;;;;;;;;;;;17.60;99.90;;;;;;5073056;28;19917;-71
2021/09/12 01:43:49;;;;;;;;;;;17.60;99.90;;;;;;5074245;28;19916;-69
2021/09/12 01:46:14;;;;;;;;;;;17.60;99.90;;;;;;5073729;28;20008;-71
2021/09/12 01:48:40;;;;;;;;;;;17.60;99.90;;;;;;5074205;28;20349;-69
2021/09/12 01:51:06;;;;;;;;;;;17.60;99.90;;;;;;5073927;28;19917;-69
2021/09/12 01:53:32;;;;;;;;;;;17.60;99.90;;;;;;5074132;28;19916;-69
2021/09/12 01:55:58;;;;;;;;;;;17.60;99.90;;;;;;5073967;28;20391;-69
2021/09/12 01:58:24;;;;;;;;;;;17.50;99.90;;;;;;5073550;28;19921;-71
2021/09/12 02:00:55;;;;;;;;;;;17.50;99.90;;;;;;5074189;28;19916;-69
2021/09/12 02:03:20;;;;;;;;;;;17.50;99.90;;;;;;5073559;28;20411;-69
2021/09/12 02:05:46;;;;;;;;;;;17.50;99.90;;;;;;5073624;28;19939;-68
2021/09/12 02:08:11;;;;;;;;;;;17.50;99.90;;;;;;5073829;28;19916;-69
2021/09/12 02:10:37;;;;;;;;;;;17.50;99.90;;;;;;5073527;28;20003;-70
2021/09/12 02:13:02;;;;;;;;;;;17.50;99.90;;;;;;5073877;28;19970;-69
2021/09/12 02:15:28;;;;;;;;;;;17.50;99.90;;;;;;5073473;28;19920;-69
2021/09/12 02:17:53;;;;;;;;;;;17.50;99.90;;;;;;5073135;28;19921;-69
2021/09/12 02:20:19;;;;;;;;;;;17.50;99.90;;;;;;5073753;28;19924;-70
2021/09/12 02:22:45;;;;;;;;;;;17.50;99.90;;;;;;5072262;28;19920;-69
2021/09/12 02:25:10;;;;;;;;;;;17.50;99.90;;;;;;5073057;28;20019;-70
2021/09/12 02:27:36;;;;;;;;;;;17.50;99.90;;;;;;5073580;28;20063;-70
2021/09/12 02:30:02;;;;;;;;;;;17.50;99.90;;;;;;5073163;28;19924;-69
2021/09/12 02:32:28;;;;;;;;;;;17.40;99.90;;;;;;5073230;28;19917;-69
2021/09/12 02:34:54;;;;;;;;;;;17.40;99.90;;;;;;5073298;28;19916;-69
2021/09/12 02:37:19;;;;;;;;;;;17.30;99.90;;;;;;5072830;28;19928;-70
2021/09/12 02:39:45;;;;;;;;;;;17.30;99.90;;;;;;5073334;28;20093;-69
2021/09/12 02:42:11;;;;;;;;;;;17.30;99.90;;;;;;5072950;28;19920;-69
2021/09/12 02:44:36;;;;;;;;;;;17.30;99.90;;;;;;5073095;28;19917;-70
2021/09/12 02:47:02;;;;;;;;;;;17.30;99.90;;;;;;5073096;28;19917;-69
2021/09/12 02:49:27;;;;;;;;;;;17.30;99.90;;;;;;5071566;28;19917;-69
2021/09/12 02:51:53;;;;;;;;;;;17.30;99.90;;;;;;5073085;28;19974;-70
2021/09/12 02:54:18;;;;;;;;;;;17.30;99.90;;;;;;5054856;28;19999;-70
2021/09/12 02:56:44;;;;;;;;;;;17.40;99.90;;;;;;5072642;28;19917;-69
2021/09/12 02:59:09;;;;;;;;;;;17.40;99.90;;;;;;5072855;28;20391;-69
2021/09/12 03:01:35;;;;;;;;;;;17.30;99.90;;;;;;5072923;28;19924;-70
2021/09/12 03:04:01;;;;;;;;;;;17.30;99.90;;;;;;5072531;28;19917;-71
2021/09/12 03:06:26;;;;;;;;;;;17.40;99.90;;;;;;5072387;28;19924;-71
2021/09/12 03:08:52;;;;;;;;;;;17.30;99.90;;;;;;5072774;28;19923;-69
2021/09/12 03:11:17;;;;;;;;;;;17.40;99.90;;;;;;5072199;28;19939;-69
2021/09/12 03:13:43;;;;;;;;;;;17.30;99.90;;;;;;5072744;28;20378;-70
2021/09/12 03:16:08;;;;;;;;;;;17.30;99.90;;;;;;5071668;28;20003;-69
2021/09/12 03:18:34;;;;;;;;;;;17.20;99.90;;;;;;5072297;28;19959;-69
2021/09/12 03:20:59;;;;;;;;;;;17.20;99.90;;;;;;5072384;28;19924;-69
2021/09/12 03:23:25;;;;;;;;;;;17.20;99.90;;;;;;5072012;28;19921;-70
2021/09/12 03:25:50;;;;;;;;;;;17.10;99.90;;;;;;5072264;28;19916;-69
2021/09/12 03:28:16;;;;;;;;;;;17.10;99.90;;;;;;5072313;28;19916;-69
2021/09/12 03:30:41;;;;;;;;;;;17.10;99.90;;;;;;5071842;28;19923;-69
2021/09/12 03:33:07;;;;;;;;;;;17.10;99.90;;;;;;5072223;28;19916;-69
2021/09/12 03:35:33;;;;;;;;;;;17.10;99.90;;;;;;5072117;28;19920;-70
2021/09/12 03:37:58;;;;;;;;;;;17.00;99.90;;;;;;5071536;28;19932;-70
2021/09/12 03:40:24;;;;;;;;;;;17.00;99.90;;;;;;5072257;28;19916;-71
2021/09/12 03:42:49;;;;;;;;;;;17.00;99.90;;;;;;5071210;28;19962;-69
2021/09/12 03:45:15;;;;;;;;;;;16.90;99.90;;;;;;5071877;28;20087;-69
2021/09/12 03:47:40;;;;;;;;;;;16.80;99.90;;;;;;5072144;28;19917;-71
2021/09/12 03:50:06;;;;;;;;;;;16.80;99.90;;;;;;5071661;28;19917;-70
2021/09/12 03:52:32;;;;;;;;;;;16.70;99.90;;;;;;5071828;28;19928;-70
2021/09/12 03:54:58;;;;;;;;;;;16.70;99.90;;;;;;5071706;28;20407;-69
2021/09/12 03:57:23;;;;;;;;;;;16.60;99.90;;;;;;5071646;28;20012;-70
2021/09/12 03:59:50;;;;;;;;;;;16.60;99.90;;;;;;5071870;28;19923;-69
2021/09/12 04:02:16;;;;;;;;;;;16.50;99.90;;;;;;5071478;28;19916;-69
2021/09/12 04:04:41;;;;;;;;;;;16.60;99.90;;;;;;5071622;28;19943;-69
2021/09/12 04:07:07;;;;;;;;;;;16.50;99.90;;;;;;5071638;28;19924;-69
2021/09/12 04:09:33;;;;;;;;;;;16.50;99.90;;;;;;5071333;28;20300;-69
2021/09/12 04:11:58;;;;;;;;;;;16.50;99.90;;;;;;5071978;28;19917;-69
2021/09/12 04:14:24;;;;;;;;;;;16.50;99.90;;;;;;5071672;28;20007;-69
2021/09/12 04:16:49;;;;;;;;;;;16.50;99.90;;;;;;5071244;28;19920;-69
2021/09/12 04:19:15;;;;;;;;;;;16.50;99.90;;;;;;5071433;28;19927;-69
2021/09/12 04:21:40;;;;;;;;;;;16.50;99.90;;;;;;5071621;28;19970;-69
2021/09/12 04:24:06;;;;;;;;;;;16.60;99.90;;;;;;5071793;28;19916;-69
2021/09/12 04:26:32;;;;;;;;;;;16.60;99.90;;;;;;5071536;28;19912;-69
2021/09/12 04:28:57;;;;;;;;;;;16.60;99.90;;;;;;5071597;28;20377;-69
2021/09/12 04:31:23;;;;;;;;;;;16.60;99.90;;;;;;5071410;28;19912;-70
2021/09/12 04:33:48;;;;;;;;;;;16.60;99.90;;;;;;5071606;28;19924;-70
2021/09/12 04:36:14;;;;;;;;;;;16.70;99.90;;;;;;5070699;28;19917;-70
2021/09/12 04:38:39;;;;;;;;;;;16.70;99.90;;;;;;5071329;28;19967;-69
2021/09/12 04:41:07;;;;;;;;;;;16.70;99.90;;;;;;5071399;28;19970;-69
2021/09/12 04:43:33;;;;;;;;;;;16.70;99.90;;;;;;5070985;28;19916;-70
2021/09/12 04:45:58;;;;;;;;;;;16.70;99.90;;;;;;5071203;28;20361;-69
2021/09/12 04:48:24;;;;;;;;;;;16.70;99.90;;;;;;5071276;28;19916;-70
2021/09/12 04:50:49;;;;;;;;;;;16.70;99.90;;;;;;5069740;28;19965;-70
2021/09/12 04:53:15;;;;;;;;;;;16.80;99.90;;;;;;5071282;28;19921;-70
2021/09/12 04:55:40;;;;;;;;;;;16.80;99.90;;;;;;5073777;28;19962;-70
2021/09/12 04:58:06;;;;;;;;;;;16.90;99.90;;;;;;5075153;28;19998;-68
2021/09/12 05:00:32;;;;;;;;;;;16.90;99.90;;;;;;5073976;28;19916;-70
2021/09/12 05:02:57;;;;;;;;;;;16.90;99.90;;;;;;5074702;28;19920;-69
2021/09/12 05:05:23;;;;;;;;;;;16.90;99.90;;;;;;5074707;28;19922;-70
2021/09/12 05:07:48;;;;;;;;;;;16.90;99.90;;;;;;5075037;28;19939;-70
2021/09/12 05:10:14;;;;;;;;;;;17.00;99.90;;;;;;5074541;28;19923;-70
2021/09/12 05:12:39;;;;;;;;;;;17.00;99.90;;;;;;5074890;28;19917;-69
2021/09/12 05:15:05;;;;;;;;;;;17.00;99.90;;;;;;5074330;28;19974;-70
2021/09/12 05:17:31;;;;;;;;;;;17.00;99.90;;;;;;5074579;28;19963;-70
2021/09/12 05:19:57;;;;;;;;;;;17.00;99.90;;;;;;5074759;28;19947;-70
2021/09/12 05:22:22;;;;;;;;;;;17.10;99.90;;;;;;5073166;28;19920;-69
2021/09/12 05:24:48;;;;;;;;;;;17.10;99.90;;;;;;5074448;28;20405;-70
2021/09/12 05:27:13;;;;;;;;;;;17.10;99.90;;;;;;5074637;28;19924;-68
2021/09/12 05:29:39;;;;;;;;;;;17.10;99.90;;;;;;5074496;28;20053;-69
2021/09/12 05:32:05;;;;;;;;;;;17.10;99.90;;;;;;5073307;28;19943;-70
2021/09/12 05:34:30;;;;;;;;;;;17.10;99.90;;;;;;5073945;28;20399;-69
2021/09/12 05:36:56;;;;;;;;;;;17.20;99.90;;;;;;5074374;28;20395;-69
2021/09/12 05:39:21;;;;;;;;;;;17.10;99.90;;;;;;5073189;28;19928;-70
2021/09/12 05:41:47;;;;;;;;;;;17.20;99.90;;;;;;5073995;28;20404;-70
2021/09/12 05:44:12;;;;;;;;;;;17.20;99.90;;;;;;5074340;28;19917;-69
2021/09/12 05:46:38;;;;;;;;;;;17.30;99.90;;;;;;5074023;28;19921;-69
2021/09/12 05:49:03;;;;;;;;;;;17.30;99.90;;;;;;5073420;28;19948;-70
2021/09/12 05:51:29;;;;;;;;;;;17.30;99.90;;;;;;5074010;28;19995;-69
2021/09/12 05:53:55;;;;;;;;;;;17.40;99.90;;;;;;5074058;28;19960;-70
2021/09/12 05:56:20;;;;;;;;;;;17.30;99.90;;;;;;5073435;28;19923;-69
2021/09/12 05:58:46;;;;;;;;;;;17.40;99.90;;;;;;5073776;28;19927;-70
2021/09/12 06:01:13;;;;;;;;;;;17.40;99.90;;;;;;5072701;28;19917;-70
2021/09/12 06:03:39;;;;;;;;;;;17.40;99.90;;;;;;5072498;28;19916;-69
2021/09/12 06:06:04;;;;;;;;;;;17.40;99.90;;;;;;5073073;28;19927;-70
2021/09/12 06:08:30;;;;;;;;;;;17.40;99.90;;;;;;5073672;28;19948;-70
2021/09/12 06:10:55;;;;;;;;;;;17.50;99.90;;;;;;5073759;28;20015;-70
2021/09/12 06:13:22;;;;;;;;;;;17.50;99.90;;;;;;5072325;28;19999;-70
2021/09/12 06:15:48;;;;;;;;;;;17.50;99.90;;;;;;5073240;28;19974;-69
2021/09/12 06:18:13;;;;;;;;;;;17.50;99.90;;;;;;5073523;28;19921;-70
2021/09/12 06:20:39;;;;;;;;;;;17.60;99.90;;;;;;5073694;28;20182;-69
2021/09/12 06:23:04;;;;;;;;;;;17.70;99.90;;;;;;5073181;28;20056;-70
2021/09/12 06:25:30;;;;;;;;;;;17.70;99.90;;;;;;5073296;28;19946;-70
2021/09/12 06:27:55;;;;;;;;;;;17.70;99.90;;;;;;5072980;28;19936;-69
2021/09/12 06:30:21;;;;;;;;;;;17.80;99.90;;;;;;5073617;28;20007;-70
2021/09/12 06:32:47;;;;;;;;;;;17.80;99.90;;;;;;5073344;28;19917;-70
2021/09/12 06:35:12;;;;;;;;;;;17.80;99.90;;;;;;5072513;28;19917;-69
2021/09/12 06:37:38;;;;;;;;;;;17.90;99.90;;;;;;5073197;28;20296;-70
2021/09/12 06:40:04;;;;;;;;;;;17.90;99.90;;;;;;5073312;28;19916;-69
2021/09/12 06:42:30;;;;;;;;;;;17.90;99.90;;;;;;5072842;28;19916;-68
2021/09/12 06:44:55;;;;;;;;;;;17.90;99.90;;;;;;5073053;28;19924;-70
2021/09/12 06:47:21;;;;;;;;;;;17.90;99.90;;;;;;5072668;28;20411;-68
2021/09/12 06:49:46;;;;;;;;;;;17.90;99.90;;;;;;5073021;28;19916;-69
2021/09/12 06:52:12;;;;;;;;;;;17.90;99.90;;;;;;5073163;28;19916;-70
2021/09/12 06:54:37;;;;;;;;;;;17.90;99.90;;;;;;5072369;28;19917;-70
2021/09/12 06:57:03;;;;;;;;;;;18.00;99.90;;;;;;5072960;28;19924;-70
2021/09/12 06:59:28;;;;;;;;;;;18.00;99.90;;;;;;5072816;28;19986;-70
2021/09/12 07:01:54;;;;;;;;;;;18.10;99.90;;;;;;5072398;28;20218;-70
2021/09/12 07:04:19;;;;;;;;;;;18.10;99.90;;;;;;5072536;28;20003;-71
2021/09/12 07:06:45;;;;;;;;;;;18.10;99.90;;;;;;5072583;28;20011;-70
2021/09/12 07:09:11;;;;;;;;;;;18.20;99.90;;;;;;5072275;28;19947;-69
2021/09/12 07:11:38;;;;;;;;;;;18.30;99.90;;;;;;5072726;28;19966;-69
2021/09/12 07:14:03;;;;;;;;;;;18.40;99.90;;;;;;5072351;28;19963;-69
2021/09/12 07:16:29;;;;;;;;;;;18.40;99.90;;;;;;5071911;28;19970;-69
2021/09/12 07:18:54;;;;;;;;;;;18.40;99.90;;;;;;5071347;28;20007;-69
2021/09/12 07:21:20;;;;;;;;;;;18.40;99.90;;;;;;5071863;28;19917;-69
2021/09/12 07:23:46;;;;;;;;;;;18.40;99.90;;;;;;5072202;28;19916;-69
2021/09/12 07:26:11;;;;;;;;;;;18.50;99.90;;;;;;5071996;28;20387;-68
2021/09/12 07:28:38;;;;;;;;;;;18.50;99.90;;;;;;5071782;28;20300;-70
2021/09/12 07:31:04;;;;;;;;;;;18.60;99.90;;;;;;5072090;28;20441;-70
2021/09/12 07:33:29;;;;;;;;;;;18.60;99.90;;;;;;5072236;28;19921;-69
2021/09/12 07:35:55;;;;;;;;;;;18.60;99.90;;;;;;5071471;28;20296;-68
2021/09/12 07:38:20;;;;;;;;;;;18.60;99.90;;;;;;5070614;28;19921;-68
2021/09/12 07:40:46;;;;;;;;;;;18.60;99.90;;;;;;5072092;28;19923;-69
2021/09/12 07:43:12;;;;;;;;;;;18.70;99.90;;;;;;5071593;28;20395;-69
2021/09/12 07:45:38;;;;;;;;;;;18.90;99.90;;;;;;5071641;28;19917;-70
2021/09/12 07:48:04;;;;;;;;;;;19.10;99.90;;;;;;5071366;28;20000;-70
2021/09/12 07:50:29;;;;;;;;;;;19.20;99.90;;;;;;5071575;28;20385;-70
2021/09/12 07:52:55;;;;;;;;;;;19.30;99.90;;;;;;5071788;28;19927;-69
2021/09/12 07:55:20;;;;;;;;;;;19.40;99.90;;;;;;5071157;28;20005;-69
2021/09/12 07:57:46;;;;;;;;;;;19.40;99.90;;;;;;5071652;28;19920;-70
2021/09/12 08:00:12;;;;;;;;;;;19.40;99.90;;;;;;5071074;28;20343;-69
2021/09/12 08:02:37;;;;;;;;;;;19.40;99.90;;;;;;5071796;28;19995;-69
2021/09/12 08:05:04;;;;;;;;;;;19.50;99.90;;;;;;5071397;28;20015;-69
2021/09/12 08:07:29;;;;;;;;;;;20.20;99.90;;;;;;5071071;28;20361;-68
2021/09/12 08:09:55;;;;;;;;;;;20.30;99.90;;;;;;5071536;28;19920;-69
2021/09/12 08:12:21;;;;;;;;;;;21.00;99.90;;;;;;5071571;28;19948;-69
2021/09/12 08:14:46;;;;;;;;;;;21.60;99.90;;;;;;5070776;28;19916;-69
2021/09/12 08:17:12;;;;;;;;;;;21.60;99.90;;;;;;5071518;28;20721;-70
2021/09/12 08:19:38;;;;;;;;;;;21.50;99.90;;;;;;5071128;28;19965;-69
2021/09/12 08:22:03;;;;;;;;;;;21.40;99.80;;;;;;5071411;28;19916;-69
2021/09/12 08:24:29;;;;;;;;;;;21.20;99.70;;;;;;5071131;28;19952;-69
2021/09/12 08:26:55;;;;;;;;;;;21.10;99.80;;;;;;5069588;28;20321;-69
2021/09/12 08:29:20;;;;;;;;;;;21.10;99.90;;;;;;5071069;28;19921;-69
2021/09/12 08:31:46;;;;;;;;;;;21.20;99.90;;;;;;5071493;28;19917;-69
2021/09/12 08:34:12;;;;;;;;;;;21.60;99.90;;;;;;5070953;28;19916;-68
2021/09/12 08:36:37;;;;;;;;;;;22.20;99.90;;;;;;5071222;28;19917;-68
2021/09/12 08:39:03;;;;;;;;;;;22.80;99.90;;;;;;5071196;28;19952;-69
2021/09/12 08:41:30;;;;;;;;;;;22.90;99.60;;;;;;5070947;28;19921;-70
2021/09/12 08:43:55;;;;;;;;;;;22.90;99.00;;;;;;5071171;28;19917;-69
2021/09/12 08:46:21;;;;;;;;;;;22.70;98.70;;;;;;5070778;28;20003;-69
2021/09/12 08:48:46;;;;;;;;;;;22.60;98.40;;;;;;5071441;28;19944;-70
2021/09/12 08:51:12;;;;;;;;;;;22.90;99.90;;;;;;5071338;28;19916;-70
2021/09/12 08:53:38;;;;;;;;;;;23.70;99.90;;;;;;5070875;28;19978;-70
2021/09/12 08:56:03;;;;;;;;;;;24.60;99.90;;;;;;5071131;28;19940;-70
2021/09/12 08:58:29;;;;;;;;;;;24.50;97.40;;;;;;5071196;28;20053;-69
2021/09/12 09:00:58;;;;;;;;;;;24.20;97.30;;;;;;5070759;28;19921;-70
2021/09/12 09:03:31;;;;;;;;;;;23.70;96.90;;;;;;5071463;28;20292;-70
2021/09/12 09:05:57;;;;;;;;;;;23.50;97.80;;;;;;5070535;28;20403;-70
2021/09/12 09:08:22;;;;;;;;;;;25.80;99.90;;;;;;5070933;28;19917;-70
2021/09/12 09:10:52;;;;;;;;;;;27.00;99.90;;;;;;5071363;28;19917;-70
2021/09/12 09:13:32;;;;;;;;;;;28.30;97.70;;;;;;5070706;28;20422;-70
2021/09/12 09:15:59;;;;;;;;;;;28.40;94.90;;;;;;5070839;28;19917;-67
2021/09/12 09:18:31;;;;;;;;;;;26.90;91.90;;;;;;5070523;28;19923;-66
2021/09/12 09:20:57;;;;;;;;;;;26.10;92.00;;;;;;5071145;28;20273;-67
2021/09/12 09:23:22;;;;;;;;;;;24.90;93.00;;;;;;5070614;28;19923;-67
2021/09/12 09:25:50;;;;;;;;;;;23.90;94.50;;;;;;5069309;28;20357;-67
2021/09/12 09:28:15;;;;;;;;;;;23.40;96.10;;;;;;5070604;28;19921;-67
2021/09/12 09:30:47;;;;;;;;;;;23.60;97.50;;;;;;5069414;28;20300;-68
2021/09/12 09:33:14;;;;;;;;;;;25.10;99.70;;;;;;5070939;28;19977;-68
2021/09/12 09:35:48;;;;;;;;;;;27.10;99.90;;;;;;5070369;28;19917;-68
2021/09/12 09:38:13;;;;;;;;;;;29.00;94.70;;;;;;5070678;28;19928;-68
2021/09/12 09:40:39;;;;;;;;;;;29.00;93.10;;;;;;5069302;28;19942;-67
2021/09/12 09:43:14;;;;;;;;;;;28.40;91.30;;;;;;5073948;28;19916;-67
2021/09/12 09:45:40;;;;;;;;;;;27.70;92.50;;;;;;5074071;28;19962;-67
2021/09/12 09:48:11;;;;;;;;;;;27.70;93.80;;;;;;5073873;28;19944;-67
2021/09/12 09:50:37;;;;;;;;;;;27.50;93.30;;;;;;5074312;28;19924;-68
2021/09/12 09:53:04;;;;;;;;;;;26.80;92.30;;;;;;5073831;28;20182;-67
2021/09/12 09:55:30;;;;;;;;;;;26.00;91.30;;;;;;5074643;28;20355;-67
2021/09/12 09:57:55;;;;;;;;;;;24.20;91.60;;;;;;5074281;28;19924;-65
2021/09/12 10:00:22;;;;;;;;;;;23.90;92.40;;;;;;5072756;28;20383;-67
2021/09/12 10:02:48;;;;;;;;;;;23.10;92.70;;;;;;5074139;28;19916;-65
2021/09/12 10:05:16;;;;;;;;;;;22.60;93.80;;;;;;5073556;28;19923;-67
2021/09/12 10:07:42;;;;;;;;;;;22.50;96.00;;;;;;5073394;28;19916;-66
2021/09/12 10:10:10;;;;;;;;;;;22.60;96.30;;;;;;5074071;28;19916;-66
2021/09/12 10:12:37;;;;;;;;;;;22.90;96.10;;;;;;5073705;28;19971;-65
2021/09/12 10:15:06;;;;;;;;;;;23.30;96.00;;;;;;5072363;28;19917;-67
2021/09/12 10:17:33;;;;;;;;;;;23.30;94.10;;;;;;5072207;28;20288;-66
2021/09/12 10:20:11;;;;;;;;;;;23.20;94.40;;;;;;5073287;28;19913;-66
2021/09/12 10:22:53;;;;;;;;;;;23.20;95.20;;;;;;5073885;28;19924;-67
2021/09/12 10:25:20;;;;;;;;;;;23.40;95.30;;;;;;5072958;28;19917;-67
2021/09/12 10:27:47;;;;;;;;;;;23.40;94.50;;;;;;5072461;28;19905;-69
2021/09/12 10:30:22;;;;;;;;;;;23.40;94.90;;;;;;5072912;28;19916;-69
2021/09/12 10:32:50;;;;;;;;;;;23.40;94.20;;;;;;5073490;28;19928;-69
2021/09/12 10:35:18;;;;;;;;;;;23.20;94.20;;;;;;5073275;28;20126;-69
2021/09/12 10:37:56;;;;;;;;;;;23.70;94.60;;;;;;5072599;28;19991;-70
2021/09/12 10:40:22;;;;;;;;;;;23.70;94.30;;;;;;5073408;28;19921;-70
2021/09/12 10:42:48;;;;;;;;;;;23.80;93.50;;;;;;5072469;28;19916;-70
2021/09/12 10:45:19;;;;;;;;;;;23.70;92.90;;;;;;5072860;28;19916;-69
2021/09/12 10:47:45;;;;;;;;;;;23.50;93.20;;;;;;5072789;28;20046;-70
2021/09/12 10:50:29;;;;;;;;;;;23.50;93.10;;;;;;5073013;28;19963;-69
2021/09/12 10:52:56;;;;;;;;;;;23.40;92.80;;;;;;5072446;28;19942;-68
2021/09/12 10:55:22;;;;;;;;;;;23.50;93.30;;;;;;5072937;28;20395;-69
2021/09/12 10:57:48;;;;;;;;;;;23.50;92.10;;;;;;5072646;28;19920;-70
2021/09/12 11:00:16;;;;;;;;;;;23.40;92.00;;;;;;5072546;28;20311;-70
2021/09/12 11:02:49;;;;;;;;;;;23.20;91.80;;;;;;5072811;28;19916;-69
2021/09/12 11:05:24;;;;;;;;;;;23.00;91.70;;;;;;5072033;28;19966;-69
2021/09/12 11:07:50;;;;;;;;;;;22.70;91.20;;;;;;5072587;28;19916;-69
2021/09/12 11:10:32;;;;;;;;;;;22.60;91.30;;;;;;5072435;28;19923;-69
2021/09/12 11:12:58;;;;;;;;;;;22.50;91.70;;;;;;5072600;28;19916;-68
2021/09/12 11:15:24;;;;;;;;;;;22.40;91.60;;;;;;5071844;28;19923;-69
2021/09/12 11:17:53;;;;;;;;;;;22.60;92.00;;;;;;5072104;28;19956;-68
2021/09/12 11:20:18;;;;;;;;;;;22.60;92.00;;;;;;5071089;28;20391;-69
2021/09/12 11:22:50;;;;;;;;;;;22.60;91.30;;;;;;5071952;28;19916;-69
2021/09/12 11:25:19;;;;;;;;;;;22.60;91.60;;;;;;5072122;28;20292;-68
2021/09/12 11:27:45;;;;;;;;;;;22.90;91.90;;;;;;5072069;28;20258;-67
2021/09/12 11:30:11;;;;;;;;;;;23.00;92.10;;;;;;5072177;28;19928;-67
2021/09/12 11:32:36;;;;;;;;;;;23.30;92.40;;;;;;5072489;28;19917;-67
2021/09/12 11:35:02;;;;;;;;;;;23.70;91.70;;;;;;5070151;28;19916;-67
2021/09/12 11:37:28;;;;;;;;;;;24.20;90.50;;;;;;5071914;28;20442;-67
2021/09/12 11:39:56;;;;;;;;;;;24.20;90.60;;;;;;5071880;28;19917;-68
2021/09/12 11:42:22;;;;;;;;;;;24.30;90.20;;;;;;5071467;28;20003;-66
2021/09/12 11:44:49;;;;;;;;;;;24.50;90.10;;;;;;5071511;28;19944;-66
2021/09/12 11:47:15;;;;;;;;;;;24.30;86.50;;;;;;5071282;28;20000;-67
2021/09/12 11:49:42;;;;;;;;;;;24.30;87.00;;;;;;5071923;28;19985;-68
2021/09/12 11:52:08;;;;;;;;;;;24.20;87.50;;;;;;5070525;28;20432;-66
2021/09/12 11:54:37;;;;;;;;;;;24.20;87.60;;;;;;5070822;28;19947;-65
2021/09/12 11:57:06;;;;;;;;;;;24.00;86.40;;;;;;5071369;28;19924;-65
2021/09/12 11:59:37;;;;;;;;;;;24.00;86.70;;;;;;5071421;28;19916;-67
2021/09/12 12:02:03;;;;;;;;;;;23.80;85.60;;;;;;5072043;28;19916;-69
2021/09/12 12:04:29;;;;;;;;;;;23.60;86.30;;;;;;5070994;28;20436;-69
2021/09/12 12:06:57;;;;;;;;;;;23.30;85.60;;;;;;5071301;28;20354;-68
2021/09/12 12:09:30;;;;;;;;;;;23.30;86.00;;;;;;5071682;28;20448;-70
2021/09/12 12:12:08;;;;;;;;;;;23.10;84.60;;;;;;5071022;28;19920;-69
2021/09/12 12:14:42;;;;;;;;;;;23.00;86.60;;;;;;5071279;28;20334;-68
2021/09/12 12:17:12;;;;;;;;;;;23.40;86.80;;;;;;5069920;28;19920;-69
2021/09/12 12:19:38;;;;;;;;;;;23.40;87.20;;;;;;5071731;28;19921;-69
2021/09/12 12:22:07;;;;;;;;;;;23.60;86.90;;;;;;5071180;28;19917;-70
2021/09/12 12:24:37;;;;;;;;;;;23.70;85.40;;;;;;5071227;28;20323;-71
2021/09/12 12:27:14;;;;;;;;;;;24.20;85.80;;;;;;5071136;28;19920;-68
2021/09/12 12:29:40;;;;;;;;;;;24.20;86.00;;;;;;5071803;28;19921;-65
2021/09/12 12:32:07;;;;;;;;;;;24.30;83.60;;;;;;5071483;28;20428;-67
2021/09/12 12:34:40;;;;;;;;;;;24.20;81.20;;;;;;5071003;28;19956;-65
2021/09/12 12:37:06;;;;;;;;;;;23.90;79.70;;;;;;5071211;28;19977;-66
2021/09/12 12:39:32;;;;;;;;;;;23.90;80.20;;;;;;5070782;28;20013;-67
2021/09/12 12:41:58;;;;;;;;;;;23.90;81.20;;;;;;5071201;28;20336;-67
2021/09/12 12:44:24;;;;;;;;;;;23.90;80.30;;;;;;5071188;28;20213;-67
2021/09/12 12:46:51;;;;;;;;;;;24.00;80.50;;;;;;5069486;28;19948;-66
2021/09/12 12:49:43;;;;;;;;;;;24.00;79.70;;;;;;5070954;28;19920;-67
2021/09/12 12:52:10;;;;;;;;;;;24.00;79.40;;;;;;5069300;28;19920;-67
2021/09/12 12:54:38;;;;;;;;;;;23.80;78.30;;;;;;5069492;28;19921;-66
2021/09/12 12:57:07;;;;;;;;;;;23.30;77.70;;;;;;5070829;28;19940;-65
2021/09/12 12:59:33;;;;;;;;;;;23.30;78.20;;;;;;5070923;28;19973;-66
2021/09/12 13:01:59;;;;;;;;;;;23.10;79.70;;;;;;5071075;28;19999;-67
2021/09/12 13:04:25;;;;;;;;;;;23.00;80.00;;;;;;5068957;28;19917;-68
2021/09/12 13:06:50;;;;;;;;;;;23.00;80.30;;;;;;5070796;28;19923;-66
2021/09/12 13:09:16;;;;;;;;;;;23.00;80.40;;;;;;5070899;28;19916;-67
2021/09/12 13:11:44;;;;;;;;;;;23.00;80.70;;;;;;5070728;28;19948;-66
2021/09/12 13:14:10;;;;;;;;;;;23.00;80.40;;;;;;5070756;28;19916;-66
2021/09/12 13:16:36;;;;;;;;;;;22.90;81.00;;;;;;5071221;28;19924;-67
2021/09/12 13:19:01;;;;;;;;;;;22.80;80.10;;;;;;5074677;28;20295;-67
2021/09/12 13:21:27;;;;;;;;;;;22.80;80.30;;;;;;5073330;28;19917;-67
2021/09/12 13:23:53;;;;;;;;;;;22.70;81.20;;;;;;5074081;28;19924;-66
2021/09/12 13:26:18;;;;;;;;;;;22.80;81.20;;;;;;5074267;28;20294;-66
2021/09/12 13:28:44;;;;;;;;;;;22.80;80.70;;;;;;5073838;28;19917;-66
2021/09/12 13:31:09;;;;;;;;;;;22.70;81.00;;;;;;5074284;28;20368;-68
2021/09/12 13:33:35;;;;;;;;;;;22.70;81.60;;;;;;5074325;28;20385;-67
2021/09/12 13:36:01;;;;;;;;;;;22.70;81.40;;;;;;5073489;28;20385;-66
2021/09/12 13:38:26;;;;;;;;;;;22.70;80.50;;;;;;5074183;28;20265;-66
2021/09/12 13:40:52;;;;;;;;;;;22.70;81.20;;;;;;5074336;28;19917;-67
2021/09/12 13:43:18;;;;;;;;;;;22.80;81.60;;;;;;5073996;28;19927;-64
2021/09/12 13:45:43;;;;;;;;;;;22.80;80.80;;;;;;5073986;28;19916;-67
2021/09/12 13:48:09;;;;;;;;;;;22.70;79.80;;;;;;5073592;28;20197;-66
2021/09/12 13:50:35;;;;;;;;;;;22.60;80.10;;;;;;5074003;28;19981;-67
2021/09/12 13:53:00;;;;;;;;;;;22.60;80.40;;;;;;5074015;28;19996;-65
2021/09/12 13:55:26;;;;;;;;;;;22.50;80.80;;;;;;5073182;28;19917;-64
2021/09/12 13:57:52;;;;;;;;;;;22.40;80.40;;;;;;5072473;28;19921;-66
2021/09/12 14:00:17;;;;;;;;;;;22.40;80.90;;;;;;5074045;28;20438;-66
2021/09/12 14:02:45;;;;;;;;;;;22.20;80.50;;;;;;5073318;28;20458;-66
2021/09/12 14:05:10;;;;;;;;;;;22.00;80.90;;;;;;5074673;28;19924;-66
2021/09/12 14:07:38;;;;;;;;;;;21.80;80.40;;;;;;5073233;28;20281;-66
2021/09/12 14:10:04;;;;;;;;;;;21.70;80.80;;;;;;5073527;28;19916;-66
2021/09/12 14:12:30;;;;;;;;;;;21.30;80.70;;;;;;5073896;28;19942;-65